Time;durP1;ratioP1;P1;durP2;ratioP2;P2;SDS_P1;SDS_P2;PMS_P1;PMS_P2;Temp;Humidity;BMP_temperature;BMP_pressure;BME280_temperature;BME280_humidity;BME280_pressure;Samples;Min_cycle;Max_cycle;Signal;HPM_P1;HPM_P2
2023/04/10 00:00:20;;;;;;;14.20;9.25;;;;;;;1.92;92.96;97827.66;5011154;28;20675;-56
2023/04/10 00:02:47;;;;;;;13.38;8.63;;;;;;;1.78;94.54;97834.69;5017009;28;20041;-57
2023/04/10 00:05:14;;;;;;;16.08;9.18;;;;;;;1.77;96.12;97835.69;5014623;28;20041;-58
2023/04/10 00:07:41;;;;;;;16.55;9.93;;;;;;;1.67;95.75;97833.28;5011788;28;20471;-57
2023/04/10 00:10:08;;;;;;;12.30;7.82;;;;;;;1.70;96.54;97834.78;5012788;28;20125;-58
2023/04/10 00:12:36;;;;;;;15.77;8.68;;;;;;;1.74;95.91;97820.03;5017038;28;20045;-58
2023/04/10 00:15:03;;;;;;;15.13;8.50;;;;;;;1.87;95.14;97821.22;5018646;28;20062;-59
2023/04/10 00:17:29;;;;;;;13.00;7.43;;;;;;;1.53;96.25;97823.44;5016098;28;20097;-59
2023/04/10 00:19:58;;;;;;;13.82;7.70;;;;;;;1.58;96.00;97818.38;5011227;28;20049;-59
2023/04/10 00:22:25;;;;;;;16.38;8.80;;;;;;;1.60;96.43;97818.19;5020723;28;20037;-58
2023/04/10 00:24:52;;;;;;;13.63;7.82;;;;;;;1.69;96.25;97812.56;5011553;28;20599;-58
2023/04/10 00:27:19;;;;;;;17.63;8.90;;;;;;;1.62;95.16;97814.31;5021469;28;20042;-59
2023/04/10 00:29:45;;;;;;;17.50;9.13;;;;;;;1.42;95.66;97811.34;5011505;28;20099;-58
2023/04/10 00:32:12;;;;;;;15.77;8.50;;;;;;;1.39;97.13;97809.03;5018485;28;20520;-58
2023/04/10 00:34:38;;;;;;;14.38;8.60;;;;;;;1.30;97.46;97802.97;5011249;28;20045;-58
2023/04/10 00:37:05;;;;;;;15.23;8.77;;;;;;;1.28;96.54;97807.66;5014305;28;20123;-59
2023/04/10 00:39:31;;;;;;;14.93;8.13;;;;;;;1.25;97.82;97806.19;5016728;28;20041;-59
2023/04/10 00:41:58;;;;;;;13.93;8.50;;;;;;;1.23;98.60;97797.53;5011673;28;20076;-58
2023/04/10 00:44:25;;;;;;;15.23;8.20;;;;;;;1.36;98.80;97796.09;5017980;28;20652;-58
2023/04/10 00:46:51;;;;;;;12.85;7.40;;;;;;;1.29;97.10;97802.13;5018927;28;20472;-56
2023/04/10 00:49:18;;;;;;;15.18;8.57;;;;;;;1.34;97.70;97798.94;5015833;28;20050;-57
2023/04/10 00:51:45;;;;;;;14.57;8.07;;;;;;;1.36;96.52;97796.91;5016175;28;20066;-54
2023/04/10 00:54:12;;;;;;;15.95;7.68;;;;;;;1.35;97.26;97797.06;5019130;28;20566;-56
2023/04/10 00:56:39;;;;;;;15.50;7.43;;;;;;;1.36;96.48;97793.41;5020035;28;20061;-57
2023/04/10 00:59:05;;;;;;;13.77;8.57;;;;;;;1.33;97.62;97797.28;5018834;28;20037;-56
2023/04/10 01:01:32;;;;;;;15.93;8.68;;;;;;;1.24;96.99;97793.84;5015603;28;20508;-58
2023/04/10 01:03:59;;;;;;;13.95;8.25;;;;;;;1.33;97.35;97799.13;5008673;28;20054;-59
2023/04/10 01:06:53;;;;;;;12.05;6.55;;;;;;;1.29;96.08;97806.66;5005349;28;20048;-58
2023/04/10 01:09:43;;;;;;;14.38;8.52;;;;;;;0.81;98.44;97804.22;4991738;28;20088;-59
2023/04/10 01:12:39;;;;;;;14.30;8.05;;;;;;;0.76;100.00;97805.59;5032424;28;20050;-58
2023/04/10 01:15:09;;;;;;;15.55;8.93;;;;;;;0.82;100.00;97805.88;5010594;28;20038;-58
2023/04/10 01:17:51;;;;;;;14.65;8.73;;;;;;;0.75;100.00;97808.44;5018013;28;20125;-58
2023/04/10 01:20:27;;;;;;;14.13;7.63;;;;;;;0.88;99.31;97810.47;5012651;28;20041;-58
2023/04/10 01:23:31;;;;;;;14.57;8.50;;;;;;;0.75;98.71;97803.09;5014112;28;20065;-54
2023/04/10 01:26:02;;;;;;;14.35;8.25;;;;;;;0.81;100.00;97810.38;5006964;28;20056;-57
2023/04/10 01:28:45;;;;;;;12.55;7.63;;;;;;;0.84;99.29;97803.84;5008378;28;20623;-59
2023/04/10 01:31:17;;;;;;;15.27;8.02;;;;;;;0.72;100.00;97803.44;5018524;28;20053;-57
2023/04/10 01:33:51;;;;;;;13.88;7.38;;;;;;;0.73;99.53;97802.44;5003797;28;20042;-58
2023/04/10 01:36:26;;;;;;;15.48;8.52;;;;;;;0.71;99.25;97796.47;5011234;28;20041;-57
2023/04/10 01:38:56;;;;;;;13.77;7.32;;;;;;;0.60;100.00;97797.72;5014767;28;20519;-57
2023/04/10 01:41:24;;;;;;;13.88;7.65;;;;;;;0.66;100.00;97796.19;5008949;28;20513;-55
2023/04/10 01:43:52;;;;;;;14.18;7.72;;;;;;;0.70;99.10;97803.63;5012134;28;20656;-58
2023/04/10 01:46:21;;;;;;;15.10;8.13;;;;;;;0.64;99.72;97799.84;5020405;28;20651;-57
2023/04/10 01:48:50;;;;;;;13.10;7.68;;;;;;;0.62;99.31;97798.34;5018780;28;20108;-53
2023/04/10 01:51:17;;;;;;;13.88;7.80;;;;;;;0.47;99.61;97796.44;5017993;28;20041;-56
2023/04/10 01:53:46;;;;;;;22.55;8.38;;;;;;;0.49;100.00;97790.94;5022617;28;20049;-57
2023/04/10 01:56:15;;;;;;;;;;;;;;;0.50;100.00;97795.28;5020597;28;20137;-55
2023/04/10 01:58:44;;;;;;;16.42;8.48;;;;;;;0.47;100.00;97795.63;5029311;28;19921;-57
2023/04/10 02:01:18;;;;;;;15.85;9.05;;;;;;;0.74;100.00;97802.25;5012258;28;22892;-57
2023/04/10 02:03:55;;;;;;;14.68;8.13;;;;;;;0.73;99.16;97800.59;5020642;28;20084;-57
2023/04/10 02:06:30;;;;;;;13.48;7.22;;;;;;;0.61;99.62;97802.03;5017002;28;20103;-57
2023/04/10 02:09:14;;;;;;;12.63;6.95;;;;;;;0.67;99.95;97796.00;5014986;28;20701;-57
2023/04/10 02:11:48;;;;;;;14.23;7.95;;;;;;;0.75;100.00;97797.78;5011074;28;20453;-56
2023/04/10 02:14:17;;;;;;;14.15;8.13;;;;;;;0.85;99.21;97809.00;5020949;28;20045;-58
2023/04/10 02:16:43;;;;;;;14.43;8.23;;;;;;;0.84;97.86;97794.03;5011532;28;20041;-58
2023/04/10 02:19:11;;;;;;;15.13;8.55;;;;;;;0.82;99.22;97796.06;5032414;28;20045;-57
2023/04/10 02:21:40;;;;;;;14.13;8.13;;;;;;;0.88;99.23;97792.66;5015191;28;20559;-57
2023/04/10 02:24:07;;;;;;;13.60;7.75;;;;;;;0.95;99.05;97795.44;5020734;28;20071;-58
2023/04/10 02:27:03;;;;;;;15.27;8.38;;;;;;;1.02;97.94;97790.22;5015119;28;20033;-58
2023/04/10 02:29:29;;;;;;;12.57;7.30;;;;;;;1.04;97.52;97793.53;5005450;28;20053;-57
2023/04/10 02:31:56;;;;;;;14.43;7.43;;;;;;;1.00;97.36;97794.91;5018621;28;20165;-57
2023/04/10 02:34:22;;;;;;;16.30;9.82;;;;;;;0.76;98.54;97791.41;5015734;28;20091;-58
2023/04/10 02:36:49;;;;;;;13.02;7.78;;;;;;;0.62;99.17;97795.69;5019425;28;20048;-58
2023/04/10 02:39:16;;;;;;;15.55;8.93;;;;;;;0.63;99.43;97798.16;5015531;28;20531;-57
2023/04/10 02:41:48;;;;;;;15.23;8.30;;;;;;;0.50;100.00;97796.13;5018060;28;20076;-55
2023/04/10 02:44:15;;;;;;;15.88;8.20;;;;;;;0.47;100.00;97799.13;5021148;28;20628;-57
2023/04/10 02:46:42;;;;;;;14.65;8.57;;;;;;;0.51;100.00;97794.25;5019210;28;20061;-56
2023/04/10 02:49:10;;;;;;;16.77;8.70;;;;;;;0.37;99.96;97799.34;5017914;28;20090;-56
2023/04/10 02:51:37;;;;;;;14.50;8.50;;;;;;;0.20;100.00;97805.75;5013531;28;20061;-56
2023/04/10 02:54:04;;;;;;;15.18;8.18;;;;;;;0.18;100.00;97795.28;5017254;28;20065;-57
2023/04/10 02:56:35;;;;;;;17.33;9.50;;;;;;;0.15;100.00;97800.97;5020925;28;20041;-57
2023/04/10 02:59:02;;;;;;;15.77;8.52;;;;;;;0.18;100.00;97784.63;5018850;28;20049;-57
2023/04/10 03:01:29;;;;;;;15.75;9.20;;;;;;;0.11;100.00;97800.47;5012966;28;20041;-58
2023/04/10 03:03:57;;;;;;;15.93;8.82;;;;;;;-0.02;100.00;97792.22;5017411;28;20531;-56
2023/04/10 03:06:31;;;;;;;15.75;8.68;;;;;;;-0.01;100.00;97794.72;5013454;28;20424;-56
2023/04/10 03:08:58;;;;;;;14.63;8.20;;;;;;;0.02;100.00;97798.88;4998109;28;20092;-55
2023/04/10 03:11:26;;;;;;;14.50;8.57;;;;;;;-0.06;100.00;97788.25;5015183;28;20041;-55
2023/04/10 03:13:52;;;;;;;14.68;8.27;;;;;;;-0.23;100.00;97792.81;5018869;28;20132;-56
2023/04/10 03:16:19;;;;;;;15.43;8.07;;;;;;;-0.13;100.00;97796.09;5017861;28;20111;-57
2023/04/10 03:18:46;;;;;;;15.90;8.32;;;;;;;-0.12;100.00;97786.28;5014427;28;20096;-55
2023/04/10 03:21:13;;;;;;;15.40;7.78;;;;;;;-0.11;100.00;97782.63;5016728;28;20034;-57
2023/04/10 03:23:40;;;;;;;15.15;8.05;;;;;;;-0.02;100.00;97776.25;5014538;28;20041;-57
2023/04/10 03:26:07;;;;;;;17.77;8.27;;;;;;;-0.20;100.00;97787.13;5020128;28;20046;-58
2023/04/10 03:28:36;;;;;;;14.35;8.02;;;;;;;-0.46;100.00;97780.25;5017305;28;20037;-58
2023/04/10 03:31:04;;;;;;;14.68;7.78;;;;;;;-0.40;100.00;97777.72;5016307;28;20037;-57
2023/04/10 03:33:34;;;;;;;14.82;7.68;;;;;;;-0.22;100.00;97778.50;5018303;28;20046;-54
2023/04/10 03:36:03;;;;;;;14.55;8.60;;;;;;;0.01;100.00;97769.75;5013496;28;20049;-58
2023/04/10 03:38:31;;;;;;;16.15;8.52;;;;;;;-0.22;100.00;97778.50;5016707;28;20811;-58
2023/04/10 03:40:58;;;;;;;15.85;8.40;;;;;;;-0.51;100.00;97770.13;5013202;28;20063;-58
2023/04/10 03:43:28;;;;;;;15.70;8.25;;;;;;;-0.53;100.00;97772.13;5018353;28;20420;-56
2023/04/10 03:45:55;;;;;;;14.93;8.43;;;;;;;-0.38;100.00;97768.75;5018018;28;21917;-57
2023/04/10 03:48:22;;;;;;;14.10;8.57;;;;;;;-0.15;100.00;97769.66;5021367;28;20129;-56
2023/04/10 03:50:49;;;;;;;15.43;9.02;;;;;;;-0.14;100.00;97763.31;5012770;28;20092;-58
2023/04/10 03:53:16;;;;;;;15.18;8.18;;;;;;;-0.13;100.00;97761.50;5016568;28;20114;-56
2023/04/10 03:55:44;;;;;;;16.15;8.18;;;;;;;-0.11;100.00;97764.78;5012910;28;20469;-56
2023/04/10 03:58:11;;;;;;;14.90;8.73;;;;;;;-0.06;100.00;97751.81;5021701;28;20390;-55
2023/04/10 04:00:38;;;;;;;15.00;7.97;;;;;;;0.07;100.00;97743.25;4999612;28;20559;-57
2023/04/10 04:03:12;;;;;;;15.35;8.68;;;;;;;-0.04;100.00;97749.00;5019018;28;20045;-56
2023/04/10 04:06:02;;;;;;;16.85;8.32;;;;;;;-0.29;100.00;97751.75;5013115;28;20041;-57
2023/04/10 04:08:49;;;;;;;16.48;8.68;;;;;;;-0.33;100.00;97745.13;4998698;28;20698;-54
2023/04/10 04:11:37;;;;;;;22.83;9.55;;;;;;;-0.43;100.00;97743.50;5011053;28;20056;-57
2023/04/10 04:14:27;;;;;;;13.68;8.30;;;;;;;-0.37;100.00;97736.63;5010612;28;20111;-55
2023/04/10 04:17:15;;;;;;;12.57;7.07;;;;;;;-0.08;100.00;97735.19;5013612;28;20084;-58
2023/04/10 04:19:54;;;;;;;14.35;7.47;;;;;;;0.08;100.00;97733.44;5021468;28;20655;-57
2023/04/10 04:22:43;;;;;;;13.65;8.07;;;;;;;-0.05;100.00;97734.84;5011837;28;20104;-58
2023/04/10 04:25:34;;;;;;;14.75;9.20;;;;;;;-0.15;100.00;97737.72;5015439;28;20564;-56
2023/04/10 04:28:38;;;;;;;12.88;6.82;;;;;;;-0.17;100.00;97734.41;5019177;28;20041;-56
2023/04/10 04:31:24;;;;;;;12.30;8.13;;;;;;;-0.22;100.00;97749.22;5018214;28;20041;-57
2023/04/10 04:34:09;;;;;;;18.05;8.38;;;;;;;-0.21;100.00;97746.41;5008485;28;20137;-57
2023/04/10 04:36:47;;;;;;;13.93;8.18;;;;;;;-0.06;100.00;97737.66;5012452;28;20052;-56
2023/04/10 04:39:33;;;;;;;13.35;7.63;;;;;;;0.03;100.00;97741.94;5018130;28;20053;-57
2023/04/10 04:42:20;;;;;;;15.50;8.20;;;;;;;-0.04;100.00;97741.00;5008377;28;20140;-57
2023/04/10 04:45:06;;;;;;;14.73;7.90;;;;;;;0.02;100.00;97742.94;5018288;28;20453;-56
2023/04/10 04:47:43;;;;;;;13.50;7.28;;;;;;;0.09;100.00;97741.25;5018313;28;20668;-58
2023/04/10 04:50:20;;;;;;;15.05;8.35;;;;;;;0.27;100.00;97736.63;5024608;28;20086;-58
2023/04/10 04:53:02;;;;;;;14.63;8.25;;;;;;;0.36;100.00;97746.22;5024074;28;20122;-56
2023/04/10 04:55:51;;;;;;;13.73;7.93;;;;;;;0.48;100.00;97752.81;5015483;28;20133;-58
2023/04/10 04:58:37;;;;;;;14.65;9.18;;;;;;;0.36;100.00;97752.41;5013623;28;20112;-58
2023/04/10 05:01:10;;;;;;;17.67;8.88;;;;;;;0.27;100.00;97757.94;5012084;28;20048;-57
2023/04/10 05:04:12;;;;;;;14.90;7.68;;;;;;;0.49;100.00;97759.81;5008212;28;20053;-56
2023/04/10 05:06:54;;;;;;;17.58;8.45;;;;;;;0.52;100.00;97758.63;5012957;28;20559;-58
2023/04/10 05:09:41;;;;;;;16.73;9.07;;;;;;;0.56;100.00;97754.59;4999382;28;20064;-55
2023/04/10 05:12:34;;;;;;;17.20;8.82;;;;;;;0.64;100.00;97762.53;5019633;28;20060;-58
2023/04/10 05:15:21;;;;;;;18.05;9.20;;;;;;;0.58;100.00;97762.41;5019008;28;20056;-57
2023/04/10 05:18:06;;;;;;;14.73;8.30;;;;;;;0.60;100.00;97760.41;5017227;28;20056;-55
2023/04/10 05:20:53;;;;;;;16.67;8.90;;;;;;;0.80;100.00;97760.72;5014589;28;20662;-58
2023/04/10 05:23:39;;;;;;;19.15;9.40;;;;;;;0.88;99.61;97766.00;5017068;28;20044;-57
2023/04/10 05:26:24;;;;;;;17.33;8.55;;;;;;;0.97;99.81;97763.25;5018523;28;20053;-57
2023/04/10 05:29:07;;;;;;;14.25;8.40;;;;;;;1.20;97.90;97757.03;5019160;28;20077;-56
2023/04/10 05:32:15;;;;;;;16.50;9.15;;;;;;;1.18;97.61;97765.22;5008843;28;20053;-58
2023/04/10 05:34:56;;;;;;;13.77;7.88;;;;;;;0.98;98.72;97760.41;5022042;28;20619;-58
2023/04/10 05:37:49;;;;;;;14.30;7.90;;;;;;;1.13;97.82;97752.44;4996079;28;20052;-56
2023/04/10 05:40:24;;;;;;;13.98;7.95;;;;;;;1.17;98.20;97760.91;5016906;28;20076;-57
2023/04/10 05:43:11;;;;;;;14.00;8.25;;;;;;;1.10;99.29;97766.13;5015181;28;20059;-56
2023/04/10 05:45:57;;;;;;;12.82;7.57;;;;;;;1.10;99.72;97774.13;5011343;28;20417;-57
2023/04/10 05:48:39;;;;;;;16.10;7.20;;;;;;;1.23;98.91;97770.88;5015948;28;20056;-57
2023/04/10 05:51:20;;;;;;;14.07;8.33;;;;;;;1.37;98.45;97771.06;5020593;28;20531;-56
2023/04/10 05:54:05;;;;;;;13.10;7.30;;;;;;;1.51;97.82;97767.56;5025607;28;20402;-56
2023/04/10 05:56:45;;;;;;;12.68;7.85;;;;;;;1.66;97.78;97766.75;5015984;28;20531;-55
2023/04/10 05:59:43;;;;;;;12.73;6.97;;;;;;;1.69;97.17;97767.19;5003413;28;20064;-58
2023/04/10 06:02:26;;;;;;;12.82;7.28;;;;;;;1.71;97.54;97772.34;5020089;28;20041;-58
2023/04/10 06:04:53;;;;;;;13.27;7.55;;;;;;;1.82;97.52;97768.38;5018108;28;20049;-58
2023/04/10 06:07:20;;;;;;;13.32;7.25;;;;;;;1.84;97.14;97769.00;5010765;28;20084;-56
2023/04/10 06:09:47;;;;;;;13.57;8.20;;;;;;;1.85;97.46;97770.69;5017076;28;20045;-56
2023/04/10 06:12:14;;;;;;;12.43;7.60;;;;;;;1.93;97.04;97770.59;5019753;28;20042;-57
2023/04/10 06:14:40;;;;;;;14.07;7.78;;;;;;;2.08;96.65;97767.06;5015695;28;20077;-58
2023/04/10 06:17:07;;;;;;;14.43;7.70;;;;;;;2.18;95.56;97769.44;5017011;28;20514;-57
2023/04/10 06:19:34;;;;;;;15.95;8.15;;;;;;;2.26;95.44;97766.66;5025222;28;20083;-56
2023/04/10 06:22:00;;;;;;;13.23;7.82;;;;;;;2.22;96.07;97770.72;5013312;28;20128;-57
2023/04/10 06:24:27;;;;;;;14.50;7.70;;;;;;;2.22;96.62;97770.72;5016846;28;20520;-58
2023/04/10 06:26:55;;;;;;;14.68;8.07;;;;;;;2.37;95.81;97759.13;5014899;28;20793;-58
2023/04/10 06:29:22;;;;;;;12.60;7.63;;;;;;;2.49;95.29;97757.63;5024444;28;20056;-56
2023/04/10 06:31:49;;;;;;;15.25;8.32;;;;;;;2.64;96.12;97762.91;5015975;28;20068;-55
2023/04/10 06:34:16;;;;;;;13.90;8.20;;;;;;;2.89;95.49;97761.69;5015790;28;20084;-56
2023/04/10 06:36:52;;;;;;;11.82;6.80;;;;;;;3.04;94.21;97762.44;5018233;28;20056;-57
2023/04/10 06:39:19;;;;;;;12.50;7.50;;;;;;;3.29;92.47;97753.16;5022022;28;20562;-56
2023/04/10 06:41:46;;;;;;;13.45;7.63;;;;;;;3.45;91.78;97757.34;5025669;28;20045;-58
2023/04/10 06:44:26;;;;;;;12.85;7.35;;;;;;;3.73;90.06;97751.94;5016970;28;20050;-58
2023/04/10 06:46:53;;;;;;;11.57;7.20;;;;;;;3.83;90.50;97754.28;5021806;28;20096;-59
2023/04/10 06:49:19;;;;;;;12.23;7.53;;;;;;;3.94;90.24;97752.06;5024462;28;20042;-58
2023/04/10 06:51:47;;;;;;;13.70;7.20;;;;;;;4.09;89.93;97746.56;5029445;28;20042;-58
2023/04/10 06:54:13;;;;;;;12.23;6.97;;;;;;;4.28;88.99;97736.94;5025376;28;20120;-57
2023/04/10 06:56:40;;;;;;;12.35;6.05;;;;;;;4.60;84.98;97739.06;5022269;28;20046;-54
2023/04/10 06:59:06;;;;;;;10.23;6.07;;;;;;;4.94;81.96;97734.53;5019310;28;20049;-56
2023/04/10 07:01:33;;;;;;;10.13;5.82;;;;;;;5.25;78.95;97733.06;5022171;28;20045;-57
2023/04/10 07:03:59;;;;;;;10.32;5.70;;;;;;;5.59;74.76;97736.53;5024307;28;20771;-57
2023/04/10 07:06:26;;;;;;;10.43;6.60;;;;;;;5.73;74.50;97734.63;5025489;28;20045;-58
2023/04/10 07:08:53;;;;;;;8.88;5.70;;;;;;;5.92;72.90;97734.75;5028612;28;20045;-57
2023/04/10 07:11:20;;;;;;;8.98;5.20;;;;;;;6.13;72.23;97740.06;5023168;28;20068;-57
2023/04/10 07:13:46;;;;;;;9.68;5.85;;;;;;;6.25;70.62;97732.97;5020277;28;20045;-55
2023/04/10 07:16:13;;;;;;;10.38;6.70;;;;;;;6.39;69.54;97733.75;5025733;28;20048;-58
2023/04/10 07:18:40;;;;;;;9.23;5.57;;;;;;;6.45;69.79;97737.44;5025917;28;20148;-56
2023/04/10 07:21:11;;;;;;;9.95;5.88;;;;;;;6.47;67.77;97735.34;5022198;28;20041;-55
2023/04/10 07:23:37;;;;;;;8.82;5.50;;;;;;;6.55;67.49;97732.41;5018627;28;20357;-56
2023/04/10 07:26:04;;;;;;;9.43;5.65;;;;;;;6.63;67.00;97731.31;5025084;28;20041;-56
2023/04/10 07:28:32;;;;;;;8.98;4.95;;;;;;;6.77;67.87;97729.34;5030210;28;20041;-57
2023/04/10 07:30:58;;;;;;;8.63;4.78;;;;;;;6.85;66.90;97733.63;5029636;28;20089;-57
2023/04/10 07:33:25;;;;;;;9.25;5.15;;;;;;;6.96;66.85;97740.19;5029652;28;20052;-57
2023/04/10 07:35:52;;;;;;;7.95;4.82;;;;;;;7.08;68.54;97733.03;5018257;28;20038;-57
2023/04/10 07:38:19;;;;;;;8.27;4.95;;;;;;;7.16;64.53;97732.75;5023137;28;20065;-55
2023/04/10 07:40:46;;;;;;;7.88;4.68;;;;;;;7.30;64.27;97738.03;5017617;28;20477;-58
2023/04/10 07:43:13;;;;;;;9.75;5.80;;;;;;;7.37;62.74;97738.78;5022976;28;20401;-58
2023/04/10 07:45:39;;;;;;;7.75;4.07;;;;;;;7.49;61.26;97740.75;5025250;28;20045;-56
2023/04/10 07:48:06;;;;;;;9.13;4.93;;;;;;;7.66;63.99;97740.97;5021190;28;20045;-56
2023/04/10 07:50:33;;;;;;;6.75;4.47;;;;;;;7.77;61.18;97739.41;5026875;28;20048;-56
2023/04/10 07:53:02;;;;;;;7.50;4.47;;;;;;;7.85;60.04;97739.13;5028940;28;20169;-56
2023/04/10 07:55:29;;;;;;;8.63;4.70;;;;;;;7.94;58.23;97729.69;5017325;28;20156;-58
2023/04/10 07:57:55;;;;;;;7.15;4.10;;;;;;;8.06;57.60;97729.75;5018807;28;20645;-57
2023/04/10 08:00:22;;;;;;;7.13;3.78;;;;;;;8.19;55.28;97734.13;5024441;28;20524;-57
2023/04/10 08:02:48;;;;;;;6.95;4.40;;;;;;;8.23;56.89;97731.00;5018121;28;20079;-57
2023/04/10 08:05:15;;;;;;;7.40;4.53;;;;;;;8.28;55.90;97723.88;5020547;28;20053;-57
2023/04/10 08:07:42;;;;;;;5.90;3.28;;;;;;;8.39;56.27;97719.56;5026143;28;20069;-57
2023/04/10 08:10:09;;;;;;;7.30;4.55;;;;;;;8.46;56.27;97714.91;5018217;28;20140;-56
2023/04/10 08:12:35;;;;;;;8.10;4.40;;;;;;;8.51;57.13;97722.28;5024942;28;20045;-58
2023/04/10 08:15:02;;;;;;;8.85;4.78;;;;;;;8.52;57.79;97715.84;5023145;28;20479;-57
2023/04/10 08:17:28;;;;;;;7.50;4.40;;;;;;;8.67;58.69;97711.94;5020261;28;20544;-57
2023/04/10 08:19:55;;;;;;;6.95;4.15;;;;;;;8.78;58.14;97719.25;5022303;28;20046;-57
2023/04/10 08:22:21;;;;;;;8.38;5.00;;;;;;;8.87;58.24;97716.19;5019696;28;20103;-58
2023/04/10 08:24:48;;;;;;;6.97;4.22;;;;;;;8.95;58.78;97718.53;5019944;28;20128;-58
2023/04/10 08:27:15;;;;;;;7.47;4.43;;;;;;;9.09;58.63;97713.75;5022233;28;20072;-58
2023/04/10 08:29:42;;;;;;;7.38;4.05;;;;;;;9.13;57.28;97719.53;5024331;28;20049;-58
2023/04/10 08:32:08;;;;;;;7.53;4.60;;;;;;;9.26;57.08;97722.00;5019070;28;20045;-57
2023/04/10 08:34:35;;;;;;;8.48;4.60;;;;;;;9.36;56.75;97718.69;5016517;28;20053;-58
2023/04/10 08:37:05;;;;;;;10.57;5.00;;;;;;;9.39;56.00;97715.53;5024269;28;20076;-56
2023/04/10 08:39:34;;;;;;;8.27;4.28;;;;;;;9.55;55.64;97710.47;5024885;28;20053;-57
2023/04/10 08:42:02;;;;;;;7.07;4.80;;;;;;;9.64;55.91;97714.44;5019847;28;20049;-56
2023/04/10 08:44:29;;;;;;;6.82;4.20;;;;;;;9.67;54.72;97707.75;5012667;28;20056;-58
2023/04/10 08:46:58;;;;;;;7.93;3.97;;;;;;;9.74;55.35;97711.94;5023379;28;20037;-58
2023/04/10 08:49:44;;;;;;;7.68;3.97;;;;;;;9.83;54.48;97711.56;5025121;28;20064;-56
2023/04/10 08:52:16;;;;;;;6.05;3.38;;;;;;;9.89;52.71;97714.16;5024488;28;20042;-56
2023/04/10 08:54:47;;;;;;;7.00;3.70;;;;;;;10.11;51.82;97712.69;5025339;28;20040;-57
2023/04/10 08:57:19;;;;;;;5.35;2.92;;;;;;;10.15;50.24;97711.16;5018834;28;20046;-58
2023/04/10 08:59:46;;;;;;;5.75;2.72;;;;;;;10.31;48.99;97712.25;5017378;28;20120;-57
2023/04/10 09:02:13;;;;;;;5.50;2.70;;;;;;;10.47;47.42;97702.56;5027076;28;20068;-57
2023/04/10 09:04:46;;;;;;;4.40;2.22;;;;;;;10.69;48.07;97712.69;5025404;28;20045;-58
2023/04/10 09:07:12;;;;;;;4.68;2.25;;;;;;;10.80;45.49;97706.38;5018920;28;20730;-56
2023/04/10 09:09:39;;;;;;;5.28;2.75;;;;;;;10.83;45.07;97702.34;5030620;28;20045;-57
2023/04/10 09:12:06;;;;;;;5.25;2.60;;;;;;;11.00;45.81;97702.38;5035101;28;20107;-56
2023/04/10 09:14:34;;;;;;;5.57;2.67;;;;;;;11.24;45.11;97704.09;5033928;28;20049;-57
2023/04/10 09:17:20;;;;;;;3.95;2.20;;;;;;;11.37;43.88;97700.19;5031645;28;20049;-58
2023/04/10 09:19:51;;;;;;;4.05;2.05;;;;;;;11.44;43.60;97696.25;5025526;28;20041;-48
2023/04/10 09:22:27;;;;;;;5.28;2.30;;;;;;;11.45;43.68;97683.50;5031162;28;20586;-50
2023/04/10 09:24:54;;;;;;;3.55;2.10;;;;;;;11.60;43.12;97679.38;5029706;28;20045;-50
2023/04/10 09:27:58;;;;;;;4.30;2.30;;;;;;;11.41;43.17;97674.22;5032255;28;20476;-49
2023/04/10 09:30:32;;;;;;;4.63;2.42;;;;;;;11.53;44.16;97671.41;5035680;28;20071;-48
2023/04/10 09:32:59;;;;;;;4.20;2.35;;;;;;;11.66;44.06;97662.09;5021409;28;20046;-53
2023/04/10 09:35:38;;;;;;;4.63;2.20;;;;;;;11.74;42.88;97663.53;5026370;28;20073;-52
2023/04/10 09:38:18;;;;;;;4.43;2.38;;;;;;;11.78;44.16;97664.66;5026922;28;20412;-51
2023/04/10 09:40:45;;;;;;;6.18;2.33;;;;;;;12.05;42.49;97655.78;5028384;28;20099;-53
2023/04/10 09:43:24;;;;;;;3.80;2.00;;;;;;;12.48;42.92;97653.22;5026672;28;20095;-53
2023/04/10 09:45:53;;;;;;;3.85;2.17;;;;;;;12.58;41.95;97642.47;5024542;28;20419;-51
2023/04/10 09:48:21;;;;;;;4.45;2.22;;;;;;;12.82;42.53;97639.38;5028156;28;20129;-54
2023/04/10 09:50:48;;;;;;;4.47;2.17;;;;;;;12.97;39.79;97637.88;5022550;28;20049;-52
2023/04/10 09:53:18;;;;;;;3.90;2.13;;;;;;;13.14;41.46;97643.16;5027342;28;20073;-59
2023/04/10 09:55:46;;;;;;;4.32;2.25;;;;;;;13.18;41.06;97638.00;5031945;28;20033;-59
2023/04/10 09:58:14;;;;;;;4.80;2.45;;;;;;;12.88;40.36;97624.78;5016187;28;20489;-59
2023/04/10 10:00:48;;;;;;;3.78;2.00;;;;;;;12.87;40.90;97622.31;5016003;28;20460;-59
2023/04/10 10:03:16;;;;;;;4.25;2.05;;;;;;;13.10;40.33;97620.28;5019461;28;20711;-59
2023/04/10 10:05:47;;;;;;;3.35;2.00;;;;;;;13.26;41.88;97616.56;5022342;28;20057;-60
2023/04/10 10:08:14;;;;;;;4.03;2.15;;;;;;;13.39;39.65;97612.53;5017179;28;20042;-60
2023/04/10 10:10:50;;;;;;;4.22;2.30;;;;;;;13.19;39.23;97609.75;5019058;28;20116;-59
2023/04/10 10:13:26;;;;;;;4.07;2.17;;;;;;;13.34;39.69;97598.13;5018902;28;20050;-60
2023/04/10 10:16:11;;;;;;;3.03;1.70;;;;;;;13.50;38.91;97596.31;5019118;28;20124;-60
2023/04/10 10:18:46;;;;;;;3.42;1.70;;;;;;;13.66;39.37;97594.47;5021825;28;20420;-60
2023/04/10 10:21:14;;;;;;;4.30;2.15;;;;;;;13.85;37.39;97591.25;5019036;28;20041;-60
2023/04/10 10:23:43;;;;;;;4.32;2.15;;;;;;;13.98;37.30;97582.59;5016224;28;20052;-60
2023/04/10 10:26:09;;;;;;;4.18;2.50;;;;;;;14.23;38.63;97580.19;5016580;28;20040;-59
2023/04/10 10:28:37;;;;;;;3.38;1.95;;;;;;;14.34;36.89;97581.00;5017625;28;20040;-59
2023/04/10 10:31:04;;;;;;;3.50;2.08;;;;;;;14.52;37.50;97574.22;5019458;28;20099;-60
2023/04/10 10:33:34;;;;;;;4.07;2.17;;;;;;;14.41;36.30;97576.91;5023832;28;20045;-59
2023/04/10 10:36:02;;;;;;;3.65;1.70;;;;;;;14.07;37.32;97568.47;5024801;28;20081;-59
2023/04/10 10:38:30;;;;;;;3.72;1.83;;;;;;;14.32;36.38;97567.66;5024494;28;20041;-59
2023/04/10 10:41:08;;;;;;;7.10;1.80;;;;;;;14.22;36.30;97556.78;5022879;28;20045;-57
2023/04/10 10:43:36;;;;;;;3.38;1.60;;;;;;;14.18;35.96;97560.03;5019898;28;20041;-59
2023/04/10 10:46:10;;;;;;;3.17;1.80;;;;;;;14.36;37.50;97557.03;5029846;28;20099;-59
2023/04/10 10:48:36;;;;;;;3.20;1.77;;;;;;;14.49;37.10;97561.94;5027502;28;20044;-60
2023/04/10 10:51:03;;;;;;;3.00;1.60;;;;;;;14.33;35.72;97554.88;5024668;28;20136;-59
2023/04/10 10:53:40;;;;;;;3.13;1.75;;;;;;;14.41;35.58;97565.22;5026143;28;20176;-58
2023/04/10 10:56:19;;;;;;;3.40;1.73;;;;;;;14.57;37.34;97552.41;5021182;28;20386;-60
2023/04/10 10:58:47;;;;;;;3.40;1.15;;;;;;;14.77;37.29;97550.75;5023561;28;20029;-59
2023/04/10 11:01:14;;;;;;;2.88;1.60;;;;;;;14.90;36.41;97550.22;5019843;28;20069;-60
2023/04/10 11:03:45;;;;;;;3.30;1.80;;;;;;;14.81;34.74;97546.41;5023922;28;20079;-60
2023/04/10 11:06:15;;;;;;;3.08;1.60;;;;;;;15.01;36.50;97540.09;5025616;28;20668;-60
2023/04/10 11:08:51;;;;;;;2.93;1.33;;;;;;;15.12;33.58;97543.63;5023107;28;20564;-59
2023/04/10 11:11:24;;;;;;;2.70;1.38;;;;;;;15.12;33.35;97540.06;5022577;28;20041;-60
2023/04/10 11:13:56;;;;;;;3.10;1.50;;;;;;;15.08;33.45;97539.81;5020341;28;20057;-59
2023/04/10 11:16:42;;;;;;;3.40;1.67;;;;;;;15.08;34.52;97534.34;5018134;28;20044;-60
2023/04/10 11:19:13;;;;;;;3.03;1.55;;;;;;;15.12;32.96;97529.97;5025099;28;20037;-58
2023/04/10 11:22:06;;;;;;;3.00;1.42;;;;;;;15.29;35.05;97531.56;5014041;28;20071;-60
2023/04/10 11:24:55;;;;;;;2.95;1.38;;;;;;;15.41;32.13;97531.22;5025276;28;20459;-58
2023/04/10 11:27:45;;;;;;;2.38;1.30;;;;;;;15.30;31.45;97536.72;5018512;28;20798;-60
2023/04/10 11:30:39;;;;;;;2.60;1.17;;;;;;;15.42;32.23;97527.41;5023137;28;20834;-59
2023/04/10 11:33:06;;;;;;;3.70;1.55;;;;;;;15.62;32.65;97536.59;5027676;28;20052;-59
2023/04/10 11:35:33;;;;;;;2.67;1.35;;;;;;;15.66;32.15;97530.28;5025827;28;20069;-60
2023/04/10 11:38:09;;;;;;;2.78;1.42;;;;;;;15.76;31.32;97525.84;5025581;28;20049;-60
2023/04/10 11:40:52;;;;;;;2.30;1.30;;;;;;;15.89;30.79;97516.22;5031487;28;20041;-59
2023/04/10 11:43:18;;;;;;;4.30;1.40;;;;;;;16.03;31.25;97506.31;5032609;28;20127;-59
2023/04/10 11:45:45;;;;;;;2.20;0.98;;;;;;;16.07;28.13;97509.31;5027298;28;20119;-60
2023/04/10 11:48:14;;;;;;;1.88;0.90;;;;;;;16.20;27.61;97500.47;5017519;28;20676;-58
2023/04/10 11:50:42;;;;;;;3.20;1.05;;;;;;;16.44;28.88;97496.16;5020141;28;20049;-60
2023/04/10 11:53:18;;;;;;;1.90;0.88;;;;;;;16.59;27.87;97484.28;5032256;28;20045;-59
2023/04/10 11:55:45;;;;;;;1.80;0.90;;;;;;;16.82;27.22;97479.09;5019598;28;20040;-58